sensor_id;sensor_type;location;lat;lon;timestamp;temperature;humidity
45983;DHT22;31711;47.158;7.346;2023-03-01T00:01:17;0.60;99.90
45983;DHT22;31711;47.158;7.346;2023-03-01T00:03:43;0.60;99.90
45983;DHT22;31711;47.158;7.346;2023-03-01T00:06:09;0.60;99.90
45983;DHT22;31711;47.158;7.346;2023-03-01T00:08:35;0.60;99.90
45983;DHT22;31711;47.158;7.346;2023-03-01T00:13:27;0.50;99.90
45983;DHT22;31711;47.158;7.346;2023-03-01T00:15:53;0.50;99.90
45983;DHT22;31711;47.158;7.346;2023-03-01T00:18:19;0.50;99.90
45983;DHT22;31711;47.158;7.346;2023-03-01T00:20:53;0.50;99.90
45983;DHT22;31711;47.158;7.346;2023-03-01T00:23:20;0.50;99.90
45983;DHT22;31711;47.158;7.346;2023-03-01T00:25:46;0.50;99.90
45983;DHT22;31711;47.158;7.346;2023-03-01T00:28:12;0.40;99.90
45983;DHT22;31711;47.158;7.346;2023-03-01T00:30:38;0.40;99.90
45983;DHT22;31711;47.158;7.346;2023-03-01T00:33:04;0.40;99.90
45983;DHT22;31711;47.158;7.346;2023-03-01T00:35:32;0.40;99.90
45983;DHT22;31711;47.158;7.346;2023-03-01T00:37:59;0.40;99.90
45983;DHT22;31711;47.158;7.346;2023-03-01T00:40:29;0.40;99.90
45983;DHT22;31711;47.158;7.346;2023-03-01T00:42:56;0.40;99.90
45983;DHT22;31711;47.158;7.346;2023-03-01T00:45:22;0.50;99.90
45983;DHT22;31711;47.158;7.346;2023-03-01T00:47:49;0.50;99.90
45983;DHT22;31711;47.158;7.346;2023-03-01T00:50:15;0.50;99.90
45983;DHT22;31711;47.158;7.346;2023-03-01T00:52:42;0.50;99.90
45983;DHT22;31711;47.158;7.346;2023-03-01T00:55:08;0.50;99.90
45983;DHT22;31711;47.158;7.346;2023-03-01T00:57:34;0.50;99.90
45983;DHT22;31711;47.158;7.346;2023-03-01T01:00:00;0.50;99.90
45983;DHT22;31711;47.158;7.346;2023-03-01T01:02:26;0.50;99.90
45983;DHT22;31711;47.158;7.346;2023-03-01T01:04:52;0.50;99.90
45983;DHT22;31711;47.158;7.346;2023-03-01T01:07:18;0.50;99.90
45983;DHT22;31711;47.158;7.346;2023-03-01T01:09:46;0.50;99.90
45983;DHT22;31711;47.158;7.346;2023-03-01T01:12:12;0.50;99.90
45983;DHT22;31711;47.158;7.346;2023-03-01T01:14:38;0.40;99.90
45983;DHT22;31711;47.158;7.346;2023-03-01T01:17:04;0.40;99.90
45983;DHT22;31711;47.158;7.346;2023-03-01T01:19:30;0.50;99.90
45983;DHT22;31711;47.158;7.346;2023-03-01T01:21:56;0.50;99.90
45983;DHT22;31711;47.158;7.346;2023-03-01T01:24:22;0.40;99.90
45983;DHT22;31711;47.158;7.346;2023-03-01T01:26:48;0.40;99.90
45983;DHT22;31711;47.158;7.346;2023-03-01T01:29:14;0.40;99.90
45983;DHT22;31711;47.158;7.346;2023-03-01T01:31:42;0.40;99.90
45983;DHT22;31711;47.158;7.346;2023-03-01T01:34:15;0.40;99.90
45983;DHT22;31711;47.158;7.346;2023-03-01T01:36:42;0.40;99.90
45983;DHT22;31711;47.158;7.346;2023-03-01T01:39:08;0.40;99.90
45983;DHT22;31711;47.158;7.346;2023-03-01T01:41:40;0.50;99.90
45983;DHT22;31711;47.158;7.346;2023-03-01T01:44:20;0.50;99.90
45983;DHT22;31711;47.158;7.346;2023-03-01T01:49:43;0.50;99.90
45983;DHT22;31711;47.158;7.346;2023-03-01T01:52:17;0.50;99.90
45983;DHT22;31711;47.158;7.346;2023-03-01T01:55:11;0.50;99.90
45983;DHT22;31711;47.158;7.346;2023-03-01T01:57:45;0.40;99.90
45983;DHT22;31711;47.158;7.346;2023-03-01T02:02:42;0.50;99.90
45983;DHT22;31711;47.158;7.346;2023-03-01T02:07:44;0.50;99.90
45983;DHT22;31711;47.158;7.346;2023-03-01T02:10:11;0.60;99.90
45983;DHT22;31711;47.158;7.346;2023-03-01T02:12:37;0.60;99.90
45983;DHT22;31711;47.158;7.346;2023-03-01T02:15:04;0.60;99.90
45983;DHT22;31711;47.158;7.346;2023-03-01T02:17:30;0.60;99.90
45983;DHT22;31711;47.158;7.346;2023-03-01T02:20:23;0.60;99.90
45983;DHT22;31711;47.158;7.346;2023-03-01T02:22:52;0.60;99.90
45983;DHT22;31711;47.158;7.346;2023-03-01T02:30:42;0.70;99.90
45983;DHT22;31711;47.158;7.346;2023-03-01T02:33:30;0.70;99.90
45983;DHT22;31711;47.158;7.346;2023-03-01T02:36:08;0.70;99.90
45983;DHT22;31711;47.158;7.346;2023-03-01T02:38:35;0.70;99.90
45983;DHT22;31711;47.158;7.346;2023-03-01T02:41:02;0.60;99.90
45983;DHT22;31711;47.158;7.346;2023-03-01T02:43:31;0.70;99.90
45983;DHT22;31711;47.158;7.346;2023-03-01T02:46:05;0.70;99.90
45983;DHT22;31711;47.158;7.346;2023-03-01T02:48:50;0.70;99.90
45983;DHT22;31711;47.158;7.346;2023-03-01T02:54:28;0.70;99.90
45983;DHT22;31711;47.158;7.346;2023-03-01T02:56:57;0.70;99.90
45983;DHT22;31711;47.158;7.346;2023-03-01T02:59:27;0.70;99.90
45983;DHT22;31711;47.158;7.346;2023-03-01T03:01:54;0.70;99.90
45983;DHT22;31711;47.158;7.346;2023-03-01T03:04:20;0.70;99.90
45983;DHT22;31711;47.158;7.346;2023-03-01T03:06:49;0.70;99.90
45983;DHT22;31711;47.158;7.346;2023-03-01T03:09:16;0.70;99.90
45983;DHT22;31711;47.158;7.346;2023-03-01T03:11:43;0.70;99.90
45983;DHT22;31711;47.158;7.346;2023-03-01T03:14:10;0.70;99.90
45983;DHT22;31711;47.158;7.346;2023-03-01T03:16:49;0.70;99.90
45983;DHT22;31711;47.158;7.346;2023-03-01T03:19:16;0.70;99.90
45983;DHT22;31711;47.158;7.346;2023-03-01T03:21:42;0.70;99.90
45983;DHT22;31711;47.158;7.346;2023-03-01T03:24:08;0.70;99.90
45983;DHT22;31711;47.158;7.346;2023-03-01T03:26:34;0.70;99.90
45983;DHT22;31711;47.158;7.346;2023-03-01T03:29:00;0.70;99.90
45983;DHT22;31711;47.158;7.346;2023-03-01T03:31:27;0.70;99.90
45983;DHT22;31711;47.158;7.346;2023-03-01T03:33:54;0.70;99.90
45983;DHT22;31711;47.158;7.346;2023-03-01T03:36:22;0.70;99.90
45983;DHT22;31711;47.158;7.346;2023-03-01T03:38:48;0.80;99.90
45983;DHT22;31711;47.158;7.346;2023-03-01T03:41:15;0.80;99.90
45983;DHT22;31711;47.158;7.346;2023-03-01T03:43:42;0.90;99.90
45983;DHT22;31711;47.158;7.346;2023-03-01T03:46:10;0.90;99.90
45983;DHT22;31711;47.158;7.346;2023-03-01T03:48:42;0.90;99.90
45983;DHT22;31711;47.158;7.346;2023-03-01T03:51:11;0.80;99.90
45983;DHT22;31711;47.158;7.346;2023-03-01T03:53:38;0.70;99.90
45983;DHT22;31711;47.158;7.346;2023-03-01T03:56:04;0.70;99.90
45983;DHT22;31711;47.158;7.346;2023-03-01T03:58:32;0.70;99.90
45983;DHT22;31711;47.158;7.346;2023-03-01T04:00:59;0.80;99.90
45983;DHT22;31711;47.158;7.346;2023-03-01T04:03:27;0.80;99.90
45983;DHT22;31711;47.158;7.346;2023-03-01T04:05:53;0.80;99.90
45983;DHT22;31711;47.158;7.346;2023-03-01T04:08:21;0.90;99.90
45983;DHT22;31711;47.158;7.346;2023-03-01T04:10:50;0.80;99.90
45983;DHT22;31711;47.158;7.346;2023-03-01T04:13:19;0.80;99.90
45983;DHT22;31711;47.158;7.346;2023-03-01T04:15:49;0.70;99.90
45983;DHT22;31711;47.158;7.346;2023-03-01T04:18:17;0.80;99.90
45983;DHT22;31711;47.158;7.346;2023-03-01T04:20:44;0.80;99.90
45983;DHT22;31711;47.158;7.346;2023-03-01T04:23:17;0.80;99.90
45983;DHT22;31711;47.158;7.346;2023-03-01T04:28:23;0.80;99.90
45983;DHT22;31711;47.158;7.346;2023-03-01T04:30:54;0.80;99.90
45983;DHT22;31711;47.158;7.346;2023-03-01T04:33:20;0.90;99.90
45983;DHT22;31711;47.158;7.346;2023-03-01T04:35:46;0.90;99.90
45983;DHT22;31711;47.158;7.346;2023-03-01T04:38:16;0.90;99.90
45983;DHT22;31711;47.158;7.346;2023-03-01T04:40:42;0.90;99.90
45983;DHT22;31711;47.158;7.346;2023-03-01T04:43:10;0.90;99.90
45983;DHT22;31711;47.158;7.346;2023-03-01T04:45:36;0.80;99.90
45983;DHT22;31711;47.158;7.346;2023-03-01T04:48:03;0.90;99.90
45983;DHT22;31711;47.158;7.346;2023-03-01T04:50:29;0.80;99.90
45983;DHT22;31711;47.158;7.346;2023-03-01T04:52:56;0.80;99.90
45983;DHT22;31711;47.158;7.346;2023-03-01T04:55:26;0.80;99.90
45983;DHT22;31711;47.158;7.346;2023-03-01T04:57:52;0.80;99.90
45983;DHT22;31711;47.158;7.346;2023-03-01T05:00:19;0.80;99.90
45983;DHT22;31711;47.158;7.346;2023-03-01T05:05:27;0.80;99.90
45983;DHT22;31711;47.158;7.346;2023-03-01T05:07:58;0.80;99.90
45983;DHT22;31711;47.158;7.346;2023-03-01T05:10:26;0.80;99.90
45983;DHT22;31711;47.158;7.346;2023-03-01T05:12:52;0.80;99.90
45983;DHT22;31711;47.158;7.346;2023-03-01T05:15:18;0.80;99.90
45983;DHT22;31711;47.158;7.346;2023-03-01T05:17:48;0.80;99.90
45983;DHT22;31711;47.158;7.346;2023-03-01T05:20:14;0.90;99.90
45983;DHT22;31711;47.158;7.346;2023-03-01T05:22:40;0.90;99.90
45983;DHT22;31711;47.158;7.346;2023-03-01T05:25:06;0.90;99.90
45983;DHT22;31711;47.158;7.346;2023-03-01T05:27:33;0.90;99.90
45983;DHT22;31711;47.158;7.346;2023-03-01T05:29:59;0.90;99.90
45983;DHT22;31711;47.158;7.346;2023-03-01T05:32:25;0.90;99.90
45983;DHT22;31711;47.158;7.346;2023-03-01T05:34:51;0.90;99.90
45983;DHT22;31711;47.158;7.346;2023-03-01T05:37:17;0.80;99.90
45983;DHT22;31711;47.158;7.346;2023-03-01T05:39:45;1.00;99.90
45983;DHT22;31711;47.158;7.346;2023-03-01T05:42:11;0.90;99.90
45983;DHT22;31711;47.158;7.346;2023-03-01T05:44:37;0.90;99.90
45983;DHT22;31711;47.158;7.346;2023-03-01T05:47:03;0.90;99.90
45983;DHT22;31711;47.158;7.346;2023-03-01T05:49:29;0.90;99.90
45983;DHT22;31711;47.158;7.346;2023-03-01T05:51:57;0.90;99.90
45983;DHT22;31711;47.158;7.346;2023-03-01T05:54:22;0.90;99.90
45983;DHT22;31711;47.158;7.346;2023-03-01T05:56:48;0.90;99.90
45983;DHT22;31711;47.158;7.346;2023-03-01T05:59:14;0.90;99.90
45983;DHT22;31711;47.158;7.346;2023-03-01T06:01:42;0.90;99.90
45983;DHT22;31711;47.158;7.346;2023-03-01T06:04:07;0.90;99.90
45983;DHT22;31711;47.158;7.346;2023-03-01T06:06:35;1.00;99.90
45983;DHT22;31711;47.158;7.346;2023-03-01T06:09:06;0.90;99.90
45983;DHT22;31711;47.158;7.346;2023-03-01T06:11:35;0.90;99.90
45983;DHT22;31711;47.158;7.346;2023-03-01T06:14:01;0.90;99.90
45983;DHT22;31711;47.158;7.346;2023-03-01T06:16:27;0.90;99.90
45983;DHT22;31711;47.158;7.346;2023-03-01T06:18:53;1.00;99.90
45983;DHT22;31711;47.158;7.346;2023-03-01T06:21:19;0.90;99.90
45983;DHT22;31711;47.158;7.346;2023-03-01T06:23:45;1.00;99.90
45983;DHT22;31711;47.158;7.346;2023-03-01T06:26:11;1.00;99.90
45983;DHT22;31711;47.158;7.346;2023-03-01T06:28:37;1.00;99.90
45983;DHT22;31711;47.158;7.346;2023-03-01T06:31:03;1.00;99.90
45983;DHT22;31711;47.158;7.346;2023-03-01T06:33:29;1.00;99.90
45983;DHT22;31711;47.158;7.346;2023-03-01T06:35:55;1.00;99.90
45983;DHT22;31711;47.158;7.346;2023-03-01T06:38:23;1.00;99.90
45983;DHT22;31711;47.158;7.346;2023-03-01T06:40:54;1.00;99.90
45983;DHT22;31711;47.158;7.346;2023-03-01T06:43:21;1.00;99.90
45983;DHT22;31711;47.158;7.346;2023-03-01T06:45:47;1.00;99.90
45983;DHT22;31711;47.158;7.346;2023-03-01T06:48:13;1.00;99.90
45983;DHT22;31711;47.158;7.346;2023-03-01T06:50:38;1.00;99.90
45983;DHT22;31711;47.158;7.346;2023-03-01T06:53:04;1.00;99.90
45983;DHT22;31711;47.158;7.346;2023-03-01T06:55:31;1.00;99.90
45983;DHT22;31711;47.158;7.346;2023-03-01T06:57:59;1.00;99.90
45983;DHT22;31711;47.158;7.346;2023-03-01T07:00:26;1.00;99.90
45983;DHT22;31711;47.158;7.346;2023-03-01T07:02:52;1.00;99.90
45983;DHT22;31711;47.158;7.346;2023-03-01T07:05:19;1.10;99.90
45983;DHT22;31711;47.158;7.346;2023-03-01T07:07:45;1.00;99.90
45983;DHT22;31711;47.158;7.346;2023-03-01T07:10:11;1.10;99.90
45983;DHT22;31711;47.158;7.346;2023-03-01T07:12:37;1.10;99.90
45983;DHT22;31711;47.158;7.346;2023-03-01T07:15:04;1.10;99.90
45983;DHT22;31711;47.158;7.346;2023-03-01T07:17:30;1.20;99.90
45983;DHT22;31711;47.158;7.346;2023-03-01T07:19:56;1.20;99.90
45983;DHT22;31711;47.158;7.346;2023-03-01T07:22:22;1.20;99.90
45983;DHT22;31711;47.158;7.346;2023-03-01T07:24:48;1.20;99.90
45983;DHT22;31711;47.158;7.346;2023-03-01T07:27:14;1.30;99.90
45983;DHT22;31711;47.158;7.346;2023-03-01T07:29:40;1.30;99.90
45983;DHT22;31711;47.158;7.346;2023-03-01T07:32:07;1.20;99.90
45983;DHT22;31711;47.158;7.346;2023-03-01T07:34:33;1.20;99.90
45983;DHT22;31711;47.158;7.346;2023-03-01T07:36:59;1.20;99.90
45983;DHT22;31711;47.158;7.346;2023-03-01T07:39:25;1.20;99.90
45983;DHT22;31711;47.158;7.346;2023-03-01T07:41:51;1.20;99.90
45983;DHT22;31711;47.158;7.346;2023-03-01T07:44:17;1.20;99.90
45983;DHT22;31711;47.158;7.346;2023-03-01T07:46:43;1.20;99.90
45983;DHT22;31711;47.158;7.346;2023-03-01T07:49:10;1.20;99.90
45983;DHT22;31711;47.158;7.346;2023-03-01T07:51:36;1.20;99.90
45983;DHT22;31711;47.158;7.346;2023-03-01T07:54:02;1.10;99.90
45983;DHT22;31711;47.158;7.346;2023-03-01T07:56:28;1.20;99.90
45983;DHT22;31711;47.158;7.346;2023-03-01T07:58:54;1.20;99.90
45983;DHT22;31711;47.158;7.346;2023-03-01T08:01:21;1.20;99.90
45983;DHT22;31711;47.158;7.346;2023-03-01T08:03:47;1.20;99.90
45983;DHT22;31711;47.158;7.346;2023-03-01T08:06:17;1.20;99.90
45983;DHT22;31711;47.158;7.346;2023-03-01T08:08:43;1.20;99.90
45983;DHT22;31711;47.158;7.346;2023-03-01T08:11:11;1.20;99.90
45983;DHT22;31711;47.158;7.346;2023-03-01T08:13:37;1.30;99.90
45983;DHT22;31711;47.158;7.346;2023-03-01T08:16:08;1.30;99.90
45983;DHT22;31711;47.158;7.346;2023-03-01T08:18:35;1.30;99.90
45983;DHT22;31711;47.158;7.346;2023-03-01T08:21:10;1.30;99.90
45983;DHT22;31711;47.158;7.346;2023-03-01T08:23:36;1.30;99.90
45983;DHT22;31711;47.158;7.346;2023-03-01T08:26:06;1.20;99.90
45983;DHT22;31711;47.158;7.346;2023-03-01T08:28:33;1.30;99.90
45983;DHT22;31711;47.158;7.346;2023-03-01T08:30:59;1.30;99.90
45983;DHT22;31711;47.158;7.346;2023-03-01T08:33:25;1.30;99.90
45983;DHT22;31711;47.158;7.346;2023-03-01T08:35:51;1.30;99.90
45983;DHT22;31711;47.158;7.346;2023-03-01T08:38:17;1.30;99.90
45983;DHT22;31711;47.158;7.346;2023-03-01T08:40:43;1.30;99.90
45983;DHT22;31711;47.158;7.346;2023-03-01T08:43:08;1.40;99.90
45983;DHT22;31711;47.158;7.346;2023-03-01T08:45:34;1.30;99.90
45983;DHT22;31711;47.158;7.346;2023-03-01T08:48:00;1.30;99.90
45983;DHT22;31711;47.158;7.346;2023-03-01T08:50:26;1.30;99.90
45983;DHT22;31711;47.158;7.346;2023-03-01T08:52:52;1.30;99.90
45983;DHT22;31711;47.158;7.346;2023-03-01T08:55:18;1.40;99.90
45983;DHT22;31711;47.158;7.346;2023-03-01T08:57:44;1.30;99.90
45983;DHT22;31711;47.158;7.346;2023-03-01T09:00:10;1.40;99.90
45983;DHT22;31711;47.158;7.346;2023-03-01T09:02:37;1.30;99.90
45983;DHT22;31711;47.158;7.346;2023-03-01T09:05:04;1.40;99.90
45983;DHT22;31711;47.158;7.346;2023-03-01T09:07:30;1.30;99.90
45983;DHT22;31711;47.158;7.346;2023-03-01T09:09:56;1.30;99.90
45983;DHT22;31711;47.158;7.346;2023-03-01T09:12:22;1.30;99.90
45983;DHT22;31711;47.158;7.346;2023-03-01T09:14:50;1.30;99.90
45983;DHT22;31711;47.158;7.346;2023-03-01T09:17:16;1.40;99.90
45983;DHT22;31711;47.158;7.346;2023-03-01T09:19:42;1.50;99.90
45983;DHT22;31711;47.158;7.346;2023-03-01T09:22:08;1.40;99.90
45983;DHT22;31711;47.158;7.346;2023-03-01T09:24:34;1.30;99.90
45983;DHT22;31711;47.158;7.346;2023-03-01T09:27:00;1.40;99.90
45983;DHT22;31711;47.158;7.346;2023-03-01T09:29:26;1.30;99.90
45983;DHT22;31711;47.158;7.346;2023-03-01T09:31:52;1.40;99.90
45983;DHT22;31711;47.158;7.346;2023-03-01T09:34:21;1.40;99.90
45983;DHT22;31711;47.158;7.346;2023-03-01T09:36:49;1.40;99.90
45983;DHT22;31711;47.158;7.346;2023-03-01T09:39:16;1.40;99.90
45983;DHT22;31711;47.158;7.346;2023-03-01T09:41:50;1.40;99.90
45983;DHT22;31711;47.158;7.346;2023-03-01T09:44:27;1.40;99.90
45983;DHT22;31711;47.158;7.346;2023-03-01T09:46:55;1.50;99.90
45983;DHT22;31711;47.158;7.346;2023-03-01T09:49:28;1.50;99.90
45983;DHT22;31711;47.158;7.346;2023-03-01T09:52:19;1.60;99.90
45983;DHT22;31711;47.158;7.346;2023-03-01T09:54:49;1.60;99.90
45983;DHT22;31711;47.158;7.346;2023-03-01T09:57:26;1.60;99.90
45983;DHT22;31711;47.158;7.346;2023-03-01T10:02:45;1.60;99.90
45983;DHT22;31711;47.158;7.346;2023-03-01T10:05:38;1.60;99.90
45983;DHT22;31711;47.158;7.346;2023-03-01T10:08:38;1.60;99.90
45983;DHT22;31711;47.158;7.346;2023-03-01T10:11:20;1.60;99.90
45983;DHT22;31711;47.158;7.346;2023-03-01T10:14:05;1.60;99.90
45983;DHT22;31711;47.158;7.346;2023-03-01T10:16:55;1.50;99.90
45983;DHT22;31711;47.158;7.346;2023-03-01T10:19:42;1.60;99.90
45983;DHT22;31711;47.158;7.346;2023-03-01T10:22:28;1.60;99.90
45983;DHT22;31711;47.158;7.346;2023-03-01T10:24:57;1.70;99.90
45983;DHT22;31711;47.158;7.346;2023-03-01T10:27:53;1.70;99.90
45983;DHT22;31711;47.158;7.346;2023-03-01T10:30:38;1.70;99.90
45983;DHT22;31711;47.158;7.346;2023-03-01T10:33:19;1.70;99.90
45983;DHT22;31711;47.158;7.346;2023-03-01T10:35:46;1.70;99.90
45983;DHT22;31711;47.158;7.346;2023-03-01T10:38:13;1.70;99.90
45983;DHT22;31711;47.158;7.346;2023-03-01T10:41:05;1.80;99.90
45983;DHT22;31711;47.158;7.346;2023-03-01T10:43:48;1.80;99.90
45983;DHT22;31711;47.158;7.346;2023-03-01T10:46:32;1.80;99.90
45983;DHT22;31711;47.158;7.346;2023-03-01T10:49:19;1.80;99.90
45983;DHT22;31711;47.158;7.346;2023-03-01T10:51:48;1.80;99.90
45983;DHT22;31711;47.158;7.346;2023-03-01T10:54:28;1.80;99.90
45983;DHT22;31711;47.158;7.346;2023-03-01T10:56:58;1.90;99.90
45983;DHT22;31711;47.158;7.346;2023-03-01T10:59:30;1.90;99.90
45983;DHT22;31711;47.158;7.346;2023-03-01T11:04:57;2.00;99.90
45983;DHT22;31711;47.158;7.346;2023-03-01T11:07:23;2.00;99.90
45983;DHT22;31711;47.158;7.346;2023-03-01T11:09:49;2.00;99.90
45983;DHT22;31711;47.158;7.346;2023-03-01T11:12:16;2.00;99.90
45983;DHT22;31711;47.158;7.346;2023-03-01T11:14:51;1.90;99.90
45983;DHT22;31711;47.158;7.346;2023-03-01T11:17:31;2.00;99.90
45983;DHT22;31711;47.158;7.346;2023-03-01T11:22:52;1.90;99.90
45983;DHT22;31711;47.158;7.346;2023-03-01T11:25:37;1.90;99.90
45983;DHT22;31711;47.158;7.346;2023-03-01T11:28:06;2.00;99.90
45983;DHT22;31711;47.158;7.346;2023-03-01T11:38:50;2.00;99.90
45983;DHT22;31711;47.158;7.346;2023-03-01T11:41:19;2.10;99.90
45983;DHT22;31711;47.158;7.346;2023-03-01T11:44:23;2.00;99.90
45983;DHT22;31711;47.158;7.346;2023-03-01T11:47:40;2.00;99.90
45983;DHT22;31711;47.158;7.346;2023-03-01T11:55:44;2.10;99.90
45983;DHT22;31711;47.158;7.346;2023-03-01T11:58:29;2.10;99.90
45983;DHT22;31711;47.158;7.346;2023-03-01T12:01:12;2.10;99.90
45983;DHT22;31711;47.158;7.346;2023-03-01T12:07:00;2.00;99.90
45983;DHT22;31711;47.158;7.346;2023-03-01T12:12:44;2.10;99.90
45983;DHT22;31711;47.158;7.346;2023-03-01T12:29:59;2.20;99.90
45983;DHT22;31711;47.158;7.346;2023-03-01T12:32:46;2.30;99.90
45983;DHT22;31711;47.158;7.346;2023-03-01T12:45:50;2.30;99.90
45983;DHT22;31711;47.158;7.346;2023-03-01T12:50:59;2.20;99.90
45983;DHT22;31711;47.158;7.346;2023-03-01T12:53:39;2.10;99.90
45983;DHT22;31711;47.158;7.346;2023-03-01T12:56:14;2.10;99.90
45983;DHT22;31711;47.158;7.346;2023-03-01T13:01:59;2.20;99.90
45983;DHT22;31711;47.158;7.346;2023-03-01T13:10:03;2.20;99.90
45983;DHT22;31711;47.158;7.346;2023-03-01T13:15:36;2.20;99.90
45983;DHT22;31711;47.158;7.346;2023-03-01T13:23:13;2.40;99.90
45983;DHT22;31711;47.158;7.346;2023-03-01T13:31:00;2.30;99.90
45983;DHT22;31711;47.158;7.346;2023-03-01T13:35:56;2.40;99.90
45983;DHT22;31711;47.158;7.346;2023-03-01T13:38:48;2.50;99.90
45983;DHT22;31711;47.158;7.346;2023-03-01T13:46:56;2.40;99.90
45983;DHT22;31711;47.158;7.346;2023-03-01T13:49:28;2.60;99.90
45983;DHT22;31711;47.158;7.346;2023-03-01T13:51:54;2.50;99.90
45983;DHT22;31711;47.158;7.346;2023-03-01T13:54:30;2.50;99.90
45983;DHT22;31711;47.158;7.346;2023-03-01T13:56:59;2.50;99.90
45983;DHT22;31711;47.158;7.346;2023-03-01T13:59:26;2.40;99.90
45983;DHT22;31711;47.158;7.346;2023-03-01T14:01:57;2.30;99.90
45983;DHT22;31711;47.158;7.346;2023-03-01T14:04:29;2.30;99.90
45983;DHT22;31711;47.158;7.346;2023-03-01T14:07:29;2.40;99.90
45983;DHT22;31711;47.158;7.346;2023-03-01T14:10:01;2.30;99.90
45983;DHT22;31711;47.158;7.346;2023-03-01T14:12:39;2.30;99.90
45983;DHT22;31711;47.158;7.346;2023-03-01T14:18:18;2.40;99.90
45983;DHT22;31711;47.158;7.346;2023-03-01T14:20:46;2.30;99.90
45983;DHT22;31711;47.158;7.346;2023-03-01T14:23:23;2.30;99.90
45983;DHT22;31711;47.158;7.346;2023-03-01T14:25:55;2.20;99.90
45983;DHT22;31711;47.158;7.346;2023-03-01T14:28:39;2.30;99.90
45983;DHT22;31711;47.158;7.346;2023-03-01T14:31:35;2.30;99.90
45983;DHT22;31711;47.158;7.346;2023-03-01T14:34:01;2.30;99.90
45983;DHT22;31711;47.158;7.346;2023-03-01T14:36:29;2.20;99.90
45983;DHT22;31711;47.158;7.346;2023-03-01T14:38:56;2.20;99.90
45983;DHT22;31711;47.158;7.346;2023-03-01T14:41:27;2.30;99.90
45983;DHT22;31711;47.158;7.346;2023-03-01T14:44:03;2.20;99.90
45983;DHT22;31711;47.158;7.346;2023-03-01T14:46:39;2.20;99.90
45983;DHT22;31711;47.158;7.346;2023-03-01T14:49:15;2.20;99.90
45983;DHT22;31711;47.158;7.346;2023-03-01T14:51:50;2.20;99.90
45983;DHT22;31711;47.158;7.346;2023-03-01T14:54:24;2.10;99.90
45983;DHT22;31711;47.158;7.346;2023-03-01T14:56:57;2.10;99.90
45983;DHT22;31711;47.158;7.346;2023-03-01T14:59:24;2.20;99.90
45983;DHT22;31711;47.158;7.346;2023-03-01T15:01:51;2.20;99.90
45983;DHT22;31711;47.158;7.346;2023-03-01T15:04:19;2.20;99.90
45983;DHT22;31711;47.158;7.346;2023-03-01T15:06:50;2.10;99.90
45983;DHT22;31711;47.158;7.346;2023-03-01T15:09:16;2.20;99.90
45983;DHT22;31711;47.158;7.346;2023-03-01T15:11:43;2.00;99.90
45983;DHT22;31711;47.158;7.346;2023-03-01T15:14:38;2.10;99.90
45983;DHT22;31711;47.158;7.346;2023-03-01T15:17:30;2.10;99.90
45983;DHT22;31711;47.158;7.346;2023-03-01T15:19:58;2.10;99.90
45983;DHT22;31711;47.158;7.346;2023-03-01T15:22:26;2.10;99.90
45983;DHT22;31711;47.158;7.346;2023-03-01T15:24:53;2.10;99.90
45983;DHT22;31711;47.158;7.346;2023-03-01T15:27:22;2.10;99.90
45983;DHT22;31711;47.158;7.346;2023-03-01T15:30:02;2.00;99.90
45983;DHT22;31711;47.158;7.346;2023-03-01T15:32:32;2.00;99.90
45983;DHT22;31711;47.158;7.346;2023-03-01T15:34:59;2.10;99.90
45983;DHT22;31711;47.158;7.346;2023-03-01T15:40:22;2.00;99.90
45983;DHT22;31711;47.158;7.346;2023-03-01T15:43:05;2.10;99.90
45983;DHT22;31711;47.158;7.346;2023-03-01T15:45:32;2.00;99.90
45983;DHT22;31711;47.158;7.346;2023-03-01T15:48:15;2.00;99.90
45983;DHT22;31711;47.158;7.346;2023-03-01T15:50:43;2.00;99.90
45983;DHT22;31711;47.158;7.346;2023-03-01T15:53:13;2.00;99.90
45983;DHT22;31711;47.158;7.346;2023-03-01T15:55:41;2.00;99.90
45983;DHT22;31711;47.158;7.346;2023-03-01T15:58:13;2.00;99.90
45983;DHT22;31711;47.158;7.346;2023-03-01T16:00:40;2.00;99.90
45983;DHT22;31711;47.158;7.346;2023-03-01T16:03:06;2.00;99.90
45983;DHT22;31711;47.158;7.346;2023-03-01T16:05:35;2.00;99.90
45983;DHT22;31711;47.158;7.346;2023-03-01T16:08:02;1.90;99.90
45983;DHT22;31711;47.158;7.346;2023-03-01T16:10:29;1.90;99.90
45983;DHT22;31711;47.158;7.346;2023-03-01T16:12:55;2.00;99.90
45983;DHT22;31711;47.158;7.346;2023-03-01T16:15:30;2.00;99.90
45983;DHT22;31711;47.158;7.346;2023-03-01T16:17:57;2.00;99.90
45983;DHT22;31711;47.158;7.346;2023-03-01T16:20:26;2.00;99.90
45983;DHT22;31711;47.158;7.346;2023-03-01T16:22:52;2.00;99.90
45983;DHT22;31711;47.158;7.346;2023-03-01T16:25:20;2.00;99.90
45983;DHT22;31711;47.158;7.346;2023-03-01T16:27:49;2.00;99.90
45983;DHT22;31711;47.158;7.346;2023-03-01T16:30:17;2.00;99.90
45983;DHT22;31711;47.158;7.346;2023-03-01T16:32:45;1.90;99.90
45983;DHT22;31711;47.158;7.346;2023-03-01T16:35:13;2.00;99.90
45983;DHT22;31711;47.158;7.346;2023-03-01T16:37:40;2.00;99.90
45983;DHT22;31711;47.158;7.346;2023-03-01T16:40:16;2.00;99.90
45983;DHT22;31711;47.158;7.346;2023-03-01T16:42:42;2.00;99.90
45983;DHT22;31711;47.158;7.346;2023-03-01T16:45:09;2.00;99.90
45983;DHT22;31711;47.158;7.346;2023-03-01T16:47:35;2.00;99.90
45983;DHT22;31711;47.158;7.346;2023-03-01T16:50:01;2.00;99.90
45983;DHT22;31711;47.158;7.346;2023-03-01T16:52:27;2.00;99.90
45983;DHT22;31711;47.158;7.346;2023-03-01T16:54:53;2.00;99.90
45983;DHT22;31711;47.158;7.346;2023-03-01T16:57:19;1.90;99.90
45983;DHT22;31711;47.158;7.346;2023-03-01T16:59:45;1.90;99.90
45983;DHT22;31711;47.158;7.346;2023-03-01T17:02:12;1.90;99.90
45983;DHT22;31711;47.158;7.346;2023-03-01T17:04:40;1.90;99.90
45983;DHT22;31711;47.158;7.346;2023-03-01T17:07:06;1.90;99.90
45983;DHT22;31711;47.158;7.346;2023-03-01T17:09:36;1.90;99.90
45983;DHT22;31711;47.158;7.346;2023-03-01T17:12:06;1.90;99.90
45983;DHT22;31711;47.158;7.346;2023-03-01T17:14:32;1.80;99.90
45983;DHT22;31711;47.158;7.346;2023-03-01T17:16:57;1.80;99.90
45983;DHT22;31711;47.158;7.346;2023-03-01T17:19:23;1.90;99.90
45983;DHT22;31711;47.158;7.346;2023-03-01T17:21:49;1.80;99.90
45983;DHT22;31711;47.158;7.346;2023-03-01T17:24:15;1.80;99.90
45983;DHT22;31711;47.158;7.346;2023-03-01T17:26:42;1.80;99.90
45983;DHT22;31711;47.158;7.346;2023-03-01T17:29:08;1.80;99.90
45983;DHT22;31711;47.158;7.346;2023-03-01T17:31:34;1.80;99.90
45983;DHT22;31711;47.158;7.346;2023-03-01T17:34:00;1.70;99.90
45983;DHT22;31711;47.158;7.346;2023-03-01T17:36:26;1.70;99.90
45983;DHT22;31711;47.158;7.346;2023-03-01T17:38:52;1.80;99.90
45983;DHT22;31711;47.158;7.346;2023-03-01T17:41:18;1.80;99.90
45983;DHT22;31711;47.158;7.346;2023-03-01T17:43:45;1.70;99.90
45983;DHT22;31711;47.158;7.346;2023-03-01T17:46:11;1.70;99.90
45983;DHT22;31711;47.158;7.346;2023-03-01T17:48:37;1.80;99.90
45983;DHT22;31711;47.158;7.346;2023-03-01T17:51:08;1.70;99.90
45983;DHT22;31711;47.158;7.346;2023-03-01T17:53:36;1.70;99.90
45983;DHT22;31711;47.158;7.346;2023-03-01T17:56:04;1.70;99.90
45983;DHT22;31711;47.158;7.346;2023-03-01T17:58:31;1.70;99.90